Detall de PIREP

Printer-friendly versionPDF version

[2012/03/02 18:37:00]
Flight IATA:CT1005
Pilot Number:042
Company ICAO:CAT
Aircraft Type:B763/F
PAX:150
Departing Airport: LROP
Destination Airport: EFRO
Alternate Airport:EFHK
Online: VATSIM
Route:BUKEL UL619 REBLA UM977 SUW UM985 BOKSU UM857 ELPIR UM854 KEKOX
Flight Level:F360
No Slew and time accel
No pause
Crash detect
Detect pilot in Cockpit between each 30 and 45 minutes
18:37 Zero fuel Weight: 245127 Lbs, Fuel Weight: 161704 Lbs
18:37 VATSIM:LROP 021800Z 00000KT CAVOK 02/M00 Q1014 8809//95 NOSIG
18:37 VATSIM:EFRO 021750Z AUTO 33013KT CAVOK 00/M05 Q1014
18:37 VOICE CATALONIAN/EU TOUR
18:49 Parking Brakes off
18:53 Take-off
18:53 Take off Weight: 404792 Lbs
18:53 Wind: 000º @ 000 Knots Heading: 083º
18:53 POS N44º 34´ 43´´ E026º 06´ 40´´
18:53 Gear Up: 189 Knots
18:53 Flaps:3 at 189 Knots
18:53 Flaps:2 at 194 Knots
18:54 Flaps:1 at 206 Knots
18:54 Flaps:0at 230 Knots
19:08 Wind:340º@090 Knots Heading: 324º Ground Speed: 351 Knots Altitude 34442 ft
19:09 TOC
19:09 Fuel Weight: 151668 Lb
19:23 Wind:340º@085 Knots Heading: 323º Ground Speed: 356 Knots Altitude 36135 ft
19:38 Wind:337º@084 Knots Heading: 351º Ground Speed: 355 Knots Altitude 36148 ft
19:53 Wind:333º@062 Knots Heading: 351º Ground Speed: 391 Knots Altitude 36072 ft
20:08 Wind:330º@064 Knots Heading: 355º Ground Speed: 380 Knots Altitude 36115 ft
20:23 Wind:333º@047 Knots Heading: 356º Ground Speed: 395 Knots Altitude 36013 ft
20:35 TOD
20:35 Fuel Weight: 134490 Lb
20:38 Wind:317º@061 Knots Heading: 003º Ground Speed: 396 Knots Altitude 35003 ft
20:53 Wind:323º@052 Knots Heading: 005º Ground Speed: 398 Knots Altitude 35039 ft
21:08 Wind:338º@042 Knots Heading: 007º Ground Speed: 400 Knots Altitude 35013 ft
21:23 Wind:344º@044 Knots Heading: 008º Ground Speed: 396 Knots Altitude 35055 ft
21:38 Wind:335º@040 Knots Heading: 004º Ground Speed: 403 Knots Altitude 35062 ft
21:53 Wind:327º@035 Knots Heading: 001º Ground Speed: 407 Knots Altitude 35082 ft
22:08 Wind:335º@047 Knots Heading: 358º Ground Speed: 395 Knots Altitude 35101 ft
22:23 Wind:330º@043 Knots Heading: 357º Ground Speed: 298 Knots Altitude 31174 ft
22:38 Wind:003º@031 Knots Heading: 178º Ground Speed: 276 Knots Altitude 10177 ft
22:41 Flaps:1 at 229 Knots
22:46 Flaps:2 at 207 Knots
22:49 Flaps:3 at 210 Knots
22:53 Wind:322º@012 Knots Heading: 014º Ground Speed: 207 Knots Altitude 3254 ft
22:57 Flaps:4 at 187 Knots
22:59 Flaps:5 at 169 Knots
22:59 Gear Down: 169 Knots
22:59 Flaps:6 at 167 Knots
22:59 Flaps:4 at 168 Knots
22:59 Flaps:6 at 168 Knots
22:59 Flaps:4 at 169 Knots
22:59 Flaps:6 at 169 Knots
23:02 TouchDown:Rate -173 ft/min Speed: 142 Knots
23:02 VATSIM:EFRO 022220Z AUTO 33007KT CAVOK M05/M08 Q1019
23:02 Land
23:02 Wind:322º@012 Knots
23:02 Heading: 211º
23:02 Flight Duration: 04:09
23:02 Landing Weight: 351562 Lbs
23:02 POS N66º 33´ 50´´ E025º 49´ 41´´
23:04 Parking brakes on
23:04 Block to Block Duration: 04:15
23:04 Final Fuel: 105996 Lbls
23:04 Spent Fuel: 55707 Lbls
23:04 Flight Length: 1485 NM
23:04 TOD Land Length: 866 NM

Exportar CSV

Powered by Drupal - Modified by Danger4k